Terminal Aerodrome Forecast
Issued by NWS

Current Version | Previous Version | Text Only | Print | Product List | Glossary Off
Versions: 1 2 3 4 5 6 7 8 9 10 11 12 13 14 15 16 17 18 19 20 21 22 23 24 25 26 27

000
FTUS41 KILN 211400 AAC
TAFLUK
TAF AMD
KLUK 211458Z 2115/2212 26013G18KT P6SM BKN029
     FM211600 28015G25KT P6SM SCT040
     FM212000 32016G26KT P6SM BKN050
     FM220200 32010KT P6SM OVC028=

USA.gov is the U.S. government's official web portal to all federal, state and local government web resources and services.